Time;durP1;ratioP1;P1;durP2;ratioP2;P2;SDS_P1;SDS_P2;PMS_P1;PMS_P2;Temp;Humidity;BMP_temperature;BMP_pressure;BME280_temperature;BME280_humidity;BME280_pressure;Samples;Min_cycle;Max_cycle;Signal;HPM_P1;HPM_P2
2023/11/20 00:00:22;;;;;;;4.50;2.57;;;11.10;99.90;;;;;;5076177;28;20471;-82
2023/11/20 00:02:51;;;;;;;4.90;3.23;;;11.10;99.90;;;;;;5075178;28;20453;-82
2023/11/20 00:05:20;;;;;;;4.73;2.80;;;11.10;99.90;;;;;;5074172;28;20461;-82
2023/11/20 00:07:48;;;;;;;5.80;3.27;;;11.10;99.90;;;;;;5077826;28;20455;-82
2023/11/20 00:10:18;;;;;;;4.60;3.73;;;11.10;99.90;;;;;;5081289;28;20539;-83
2023/11/20 00:12:46;;;;;;;3.90;3.30;;;11.10;99.90;;;;;;5079350;28;20876;-82
2023/11/20 00:15:14;;;;;;;4.63;3.60;;;11.10;99.90;;;;;;5078427;28;20460;-83
2023/11/20 00:17:42;;;;;;;4.50;3.20;;;11.10;99.90;;;;;;5078258;28;20469;-84
2023/11/20 00:20:13;;;;;;;3.93;3.10;;;11.10;99.90;;;;;;5078456;28;20504;-82
2023/11/20 00:22:41;;;;;;;4.40;3.50;;;11.10;99.90;;;;;;5078681;28;20989;-82
2023/11/20 00:25:10;;;;;;;4.10;3.70;;;11.10;99.90;;;;;;5078329;28;20448;-83
2023/11/20 00:27:38;;;;;;;4.37;3.80;;;11.10;99.90;;;;;;5078444;28;20453;-83
2023/11/20 00:30:08;;;;;;;5.33;4.30;;;11.10;99.90;;;;;;5078353;28;20441;-81
2023/11/20 00:32:37;;;;;;;4.43;4.00;;;11.10;99.90;;;;;;5079735;28;20492;-83
2023/11/20 00:35:08;;;;;;;5.00;4.10;;;11.10;99.90;;;;;;5078500;28;20448;-82
2023/11/20 00:37:39;;;;;;;4.83;4.20;;;11.10;99.90;;;;;;5078393;28;20461;-82
2023/11/20 00:40:11;;;;;;;4.53;4.13;;;11.10;99.90;;;;;;5078725;28;20950;-82
2023/11/20 00:42:39;;;;;;;5.53;4.30;;;11.10;99.90;;;;;;5078348;28;20529;-82
2023/11/20 00:45:08;;;;;;;7.10;4.73;;;11.10;99.90;;;;;;5079831;28;20437;-82
2023/11/20 00:47:36;;;;;;;5.70;4.57;;;11.10;99.90;;;;;;5078280;28;20448;-82
2023/11/20 00:50:05;;;;;;;4.20;3.80;;;11.20;99.90;;;;;;5078780;28;20445;-81
2023/11/20 00:52:35;;;;;;;4.00;3.60;;;11.10;99.90;;;;;;5078011;28;20466;-82
2023/11/20 00:55:10;;;;;;;4.33;3.53;;;11.10;99.90;;;;;;5078438;28;20520;-83
2023/11/20 00:57:39;;;;;;;4.10;3.70;;;11.10;99.90;;;;;;5077999;28;20853;-82
2023/11/20 01:00:11;;;;;;;4.23;3.83;;;11.10;99.90;;;;;;5078157;28;20441;-82
2023/11/20 01:02:40;;;;;;;4.50;4.10;;;11.10;99.90;;;;;;5077817;28;20488;-82
2023/11/20 01:05:09;;;;;;;6.00;5.07;;;11.20;99.90;;;;;;5077262;28;20445;-82
2023/11/20 01:07:37;;;;;;;5.17;4.67;;;11.20;99.90;;;;;;5076975;28;20449;-81
2023/11/20 01:10:09;;;;;;;6.17;5.57;;;11.20;99.90;;;;;;5077532;28;20524;-82
2023/11/20 01:12:37;;;;;;;5.77;5.13;;;11.20;99.90;;;;;;5077430;28;20473;-82
2023/11/20 01:15:06;;;;;;;6.47;5.87;;;11.20;99.90;;;;;;5077485;28;20503;-81
2023/11/20 01:17:36;;;;;;;7.10;6.40;;;11.20;99.90;;;;;;5076374;28;20981;-81
2023/11/20 01:20:05;;;;;;;6.83;6.10;;;11.20;99.90;;;;;;5076667;28;20445;-82
2023/11/20 01:22:33;;;;;;;7.10;6.40;;;11.20;99.90;;;;;;5076481;28;20461;-82
2023/11/20 01:25:02;;;;;;;6.50;5.90;;;11.20;99.90;;;;;;5076722;28;20452;-82
2023/11/20 01:27:33;;;;;;;6.00;5.50;;;11.30;99.90;;;;;;5075946;28;20829;-82
2023/11/20 01:30:01;;;;;;;5.47;4.97;;;11.30;99.90;;;;;;5075471;28;20445;-84
2023/11/20 01:32:29;;;;;;;4.70;4.20;;;11.30;99.90;;;;;;5075988;28;20561;-83
2023/11/20 01:34:58;;;;;;;4.90;4.50;;;11.30;99.90;;;;;;5075985;28;20449;-82
2023/11/20 01:37:26;;;;;;;8.43;3.80;;;11.40;99.90;;;;;;5075523;28;20823;-82
2023/11/20 01:39:55;;;;;;;5.03;3.50;;;11.30;99.90;;;;;;5075645;28;20476;-82
2023/11/20 01:42:23;;;;;;;3.53;3.23;;;11.40;99.90;;;;;;5076368;28;20491;-83
2023/11/20 01:44:53;;;;;;;4.50;4.10;;;11.40;99.90;;;;;;5076292;28;20464;-82
2023/11/20 01:47:22;;;;;;;4.27;3.60;;;11.40;99.90;;;;;;5077059;28;20445;-82
2023/11/20 01:49:51;;;;;;;4.40;3.97;;;11.40;99.90;;;;;;5077036;28;20450;-82
2023/11/20 01:52:19;;;;;;;4.57;3.60;;;11.40;99.90;;;;;;5077225;28;20464;-81
2023/11/20 01:54:47;;;;;;;3.73;3.33;;;11.40;99.90;;;;;;5076029;28;20520;-83
2023/11/20 01:57:15;;;;;;;4.17;3.60;;;11.40;99.90;;;;;;5076321;28;20814;-82
2023/11/20 01:59:44;;;;;;;5.53;3.50;;;11.40;99.90;;;;;;5076166;28;20902;-81
2023/11/20 02:02:13;;;;;;;4.20;3.33;;;11.40;99.90;;;;;;5075783;28;20514;-82
2023/11/20 02:04:43;;;;;;;4.13;3.33;;;11.40;99.90;;;;;;5076003;28;20472;-83
2023/11/20 02:07:11;;;;;;;5.63;3.60;;;11.40;99.90;;;;;;5077735;28;20444;-84
2023/11/20 02:09:43;;;;;;;3.40;2.80;;;11.40;99.90;;;;;;5075772;28;20890;-83
2023/11/20 02:12:11;;;;;;;3.30;2.63;;;11.40;99.90;;;;;;5075203;28;20554;-82
2023/11/20 02:14:40;;;;;;;4.00;3.00;;;11.40;99.90;;;;;;5076801;28;20916;-82
2023/11/20 02:17:08;;;;;;;3.30;3.00;;;11.40;99.90;;;;;;5075156;28;20460;-82
2023/11/20 02:19:38;;;;;;;3.53;2.27;;;11.40;99.90;;;;;;5076190;28;20461;-82
2023/11/20 02:22:07;;;;;;;3.73;3.03;;;11.40;99.90;;;;;;5074740;28;20469;-84
2023/11/20 02:24:35;;;;;;;3.40;2.73;;;11.40;99.90;;;;;;5075084;28;20457;-82
2023/11/20 02:27:14;;;;;;;3.67;2.87;;;11.40;99.90;;;;;;5074738;28;20453;-83
2023/11/20 02:29:53;;;;;;;3.47;2.30;;;11.40;99.90;;;;;;5075412;28;20446;-83
2023/11/20 02:32:21;;;;;;;4.50;2.80;;;11.40;99.90;;;;;;5074106;28;20559;-82
2023/11/20 02:34:51;;;;;;;2.80;2.20;;;11.40;99.90;;;;;;5074281;28;20507;-81
2023/11/20 02:37:19;;;;;;;3.13;2.47;;;11.40;99.90;;;;;;5074769;28;20465;-82
2023/11/20 02:39:51;;;;;;;3.30;2.10;;;11.40;99.90;;;;;;5074163;28;20469;-82
2023/11/20 02:42:20;;;;;;;2.70;2.10;;;11.50;99.90;;;;;;5073995;28;20476;-82
2023/11/20 02:44:50;;;;;;;2.80;2.00;;;11.40;99.90;;;;;;5073928;28;20461;-83
2023/11/20 02:47:18;;;;;;;2.57;1.87;;;11.40;99.90;;;;;;5074444;28;20441;-81
2023/11/20 02:49:47;;;;;;;2.87;1.87;;;11.40;99.90;;;;;;5074124;28;20456;-81
2023/11/20 02:52:16;;;;;;;3.70;1.93;;;11.40;99.90;;;;;;5073640;28;20464;-82
2023/11/20 02:54:45;;;;;;;4.10;1.90;;;11.40;99.90;;;;;;5073800;28;20562;-82
2023/11/20 02:57:13;;;;;;;3.20;1.50;;;11.40;99.90;;;;;;5075125;28;20437;-81
2023/11/20 02:59:41;;;;;;;4.53;1.83;;;11.30;99.90;;;;;;5073461;28;20518;-84
2023/11/20 03:02:13;;;;;;;4.30;2.00;;;11.40;99.90;;;;;;5073520;28;21005;-82
2023/11/20 03:04:44;;;;;;;2.73;1.53;;;11.40;99.90;;;;;;5073525;28;20466;-83
2023/11/20 03:07:14;;;;;;;2.70;1.77;;;11.40;99.90;;;;;;5074030;28;20510;-81
2023/11/20 03:09:42;;;;;;;5.37;1.73;;;11.40;99.90;;;;;;5073281;28;20449;-81
2023/11/20 03:12:10;;;;;;;2.10;1.77;;;11.40;99.90;;;;;;5073467;28;20469;-83
2023/11/20 03:14:39;;;;;;;2.80;1.77;;;11.40;99.90;;;;;;5073337;28;20453;-82
2023/11/20 03:17:07;;;;;;;2.17;1.50;;;11.40;99.90;;;;;;5075838;28;20432;-84
2023/11/20 03:19:37;;;;;;;2.77;1.70;;;11.40;99.90;;;;;;5073556;28;20468;-84
2023/11/20 03:22:05;;;;;;;2.87;1.67;;;11.40;99.90;;;;;;5073656;28;20476;-81
2023/11/20 03:24:34;;;;;;;2.63;1.87;;;11.40;99.90;;;;;;5073913;28;20958;-82
2023/11/20 03:27:02;;;;;;;2.53;1.93;;;11.40;99.90;;;;;;5073647;28;20536;-84
2023/11/20 03:29:30;;;;;;;2.40;1.70;;;11.40;99.90;;;;;;5073337;28;20449;-84
2023/11/20 03:31:58;;;;;;;3.63;2.17;;;11.40;99.90;;;;;;5072806;28;20500;-84
2023/11/20 03:34:27;;;;;;;2.60;1.97;;;11.40;99.90;;;;;;5073039;28;20489;-81
2023/11/20 03:36:57;;;;;;;2.40;1.73;;;11.40;99.90;;;;;;5074620;28;20502;-81
2023/11/20 03:39:27;;;;;;;2.30;1.87;;;11.40;99.90;;;;;;5074495;28;20469;-83
2023/11/20 03:41:55;;;;;;;2.73;1.80;;;11.40;99.90;;;;;;5075660;28;20469;-81
2023/11/20 03:44:24;;;;;;;3.50;2.57;;;11.40;99.90;;;;;;5078729;28;20887;-82
2023/11/20 03:46:52;;;;;;;2.70;2.40;;;11.40;99.90;;;;;;5078752;28;20456;-83
2023/11/20 03:49:21;;;;;;;3.50;2.60;;;11.40;99.90;;;;;;5078245;28;20495;-83
2023/11/20 03:51:50;;;;;;;3.83;3.27;;;11.40;99.90;;;;;;5079249;28;20465;-83
2023/11/20 03:54:19;;;;;;;3.60;2.97;;;11.40;99.90;;;;;;5079777;28;20491;-82
2023/11/20 03:56:47;;;;;;;4.00;3.43;;;11.50;99.90;;;;;;5079197;28;20437;-82
2023/11/20 03:59:16;;;;;;;4.47;3.47;;;11.40;99.90;;;;;;5079493;28;20457;-82
2023/11/20 04:01:44;;;;;;;4.27;3.73;;;11.40;99.90;;;;;;5079142;28;20997;-84
2023/11/20 04:04:13;;;;;;;5.20;4.20;;;11.40;99.90;;;;;;5078796;28;20456;-84
2023/11/20 04:06:41;;;;;;;6.73;4.93;;;11.40;99.90;;;;;;5079072;28;20434;-82
2023/11/20 04:09:09;;;;;;;6.47;4.87;;;11.40;99.90;;;;;;5078580;28;21068;-81
2023/11/20 04:11:40;;;;;;;6.00;5.30;;;11.50;99.90;;;;;;5079085;28;20488;-81
2023/11/20 04:14:09;;;;;;;6.83;5.00;;;11.50;99.90;;;;;;5078815;28;20510;-81
2023/11/20 04:16:38;;;;;;;7.77;5.00;;;11.50;99.90;;;;;;5079309;28;20449;-81
2023/11/20 04:19:06;;;;;;;7.87;5.47;;;11.50;99.90;;;;;;5078726;28;20483;-81
2023/11/20 04:21:35;;;;;;;7.10;5.33;;;11.50;99.90;;;;;;5078276;28;20488;-80
2023/11/20 04:24:04;;;;;;;6.50;5.50;;;11.60;99.90;;;;;;5078357;28;20528;-82
2023/11/20 04:26:32;;;;;;;5.63;4.30;;;11.60;99.90;;;;;;5079534;28;20433;-81
2023/11/20 04:29:02;;;;;;;8.03;5.80;;;11.60;99.90;;;;;;5077948;28;20452;-82
2023/11/20 04:31:30;;;;;;;6.27;5.03;;;11.60;99.90;;;;;;5077562;28;20472;-82
2023/11/20 04:33:58;;;;;;;5.33;4.83;;;11.60;99.90;;;;;;5077742;28;20527;-83
2023/11/20 04:36:26;;;;;;;5.83;5.10;;;11.60;99.90;;;;;;5079712;28;20803;-84
2023/11/20 04:38:55;;;;;;;6.00;5.40;;;11.70;99.90;;;;;;5078052;28;20473;-84
2023/11/20 04:41:23;;;;;;;5.23;4.73;;;11.70;99.90;;;;;;5077517;28;20477;-82
2023/11/20 04:43:51;;;;;;;5.23;4.73;;;11.60;99.90;;;;;;5078114;28;20477;-82
2023/11/20 04:46:21;;;;;;;5.00;4.30;;;11.70;99.90;;;;;;5078096;28;20510;-84
2023/11/20 04:48:49;;;;;;;5.37;4.10;;;11.70;99.90;;;;;;5078738;28;20981;-85
2023/11/20 04:51:20;;;;;;;3.90;3.17;;;11.70;99.90;;;;;;5078624;28;20469;-84
2023/11/20 04:53:49;;;;;;;5.60;3.20;;;11.70;99.90;;;;;;5076831;28;20510;-82
2023/11/20 04:56:17;;;;;;;5.13;3.10;;;11.70;99.90;;;;;;5077119;28;20453;-82
2023/11/20 04:58:46;;;;;;;5.27;2.80;;;11.70;99.90;;;;;;5077765;28;20524;-83
2023/11/20 05:01:14;;;;;;;6.10;3.60;;;11.70;99.90;;;;;;5078317;28;20845;-82
2023/11/20 05:03:44;;;;;;;3.93;3.20;;;11.60;99.90;;;;;;5077520;28;20452;-83
2023/11/20 05:06:16;;;;;;;3.03;2.73;;;11.70;99.90;;;;;;5077986;28;20438;-82
2023/11/20 05:08:46;;;;;;;4.37;2.80;;;11.80;99.90;;;;;;5077665;28;20784;-83
2023/11/20 05:11:14;;;;;;;3.00;2.40;;;11.70;99.90;;;;;;5078162;28;20526;-82
2023/11/20 05:13:42;;;;;;;3.40;2.73;;;11.70;99.90;;;;;;5078250;28;20457;-85
2023/11/20 05:16:11;;;;;;;3.77;2.10;;;11.70;99.90;;;;;;5077280;28;20544;-83
2023/11/20 05:18:39;;;;;;;3.80;2.23;;;11.70;99.90;;;;;;5076338;28;20445;-83
2023/11/20 05:21:09;;;;;;;3.60;2.10;;;11.80;99.90;;;;;;5076679;28;20483;-82
2023/11/20 05:23:37;;;;;;;4.00;1.80;;;11.80;99.90;;;;;;5076341;28;20445;-82
2023/11/20 05:26:05;;;;;;;2.77;1.97;;;11.80;99.90;;;;;;5076234;28;20445;-83
2023/11/20 05:28:33;;;;;;;4.30;2.00;;;11.70;99.90;;;;;;5075938;28;20454;-83
2023/11/20 05:31:02;;;;;;;2.17;1.97;;;11.80;99.90;;;;;;5075900;28;20504;-84
2023/11/20 05:33:31;;;;;;;2.00;1.63;;;11.70;99.90;;;;;;5075889;28;20445;-83
2023/11/20 05:36:00;;;;;;;2.40;1.90;;;11.80;99.90;;;;;;5075999;28;20499;-82
2023/11/20 05:38:29;;;;;;;3.50;1.87;;;11.80;99.90;;;;;;5075862;28;20456;-83
2023/11/20 05:40:58;;;;;;;2.30;1.80;;;11.80;99.90;;;;;;5075827;28;20567;-83
2023/11/20 05:43:26;;;;;;;2.73;1.80;;;11.80;99.90;;;;;;5076930;28;20433;-83
2023/11/20 05:45:54;;;;;;;1.60;1.27;;;11.70;99.90;;;;;;5075664;28;20958;-83
2023/11/20 05:48:22;;;;;;;2.07;1.70;;;11.80;99.90;;;;;;5075499;28;20449;-83
2023/11/20 05:50:50;;;;;;;2.37;1.57;;;11.70;99.90;;;;;;5075622;28;20504;-82
2023/11/20 05:53:19;;;;;;;2.67;1.83;;;11.80;99.90;;;;;;5075386;28;20946;-82
2023/11/20 05:55:48;;;;;;;2.57;1.53;;;11.80;99.90;;;;;;5075229;28;20535;-83
2023/11/20 05:58:17;;;;;;;2.77;1.40;;;11.80;99.90;;;;;;5077612;28;20430;-82
2023/11/20 06:00:45;;;;;;;2.90;1.77;;;11.70;99.90;;;;;;5075850;28;20817;-83
2023/11/20 06:03:14;;;;;;;1.73;1.53;;;11.80;99.90;;;;;;5076485;28;20512;-83
2023/11/20 06:05:42;;;;;;;2.20;1.60;;;11.80;99.90;;;;;;5076027;28;20456;-83
2023/11/20 06:08:10;;;;;;;2.70;1.70;;;11.80;99.90;;;;;;5078130;28;20980;-82
2023/11/20 06:10:38;;;;;;;2.00;1.77;;;11.80;99.90;;;;;;5076360;28;20639;-82
2023/11/20 06:13:08;;;;;;;2.40;2.13;;;11.80;99.90;;;;;;5076319;28;20489;-82
2023/11/20 06:15:36;;;;;;;1.80;1.50;;;11.80;99.90;;;;;;5077806;28;20448;-82
2023/11/20 06:18:05;;;;;;;3.27;1.90;;;11.80;99.90;;;;;;5076449;28;20540;-84
2023/11/20 06:20:33;;;;;;;1.93;1.67;;;11.80;99.90;;;;;;5075671;28;20452;-82
2023/11/20 06:23:02;;;;;;;2.67;1.50;;;11.80;99.90;;;;;;5075771;28;20983;-83
2023/11/20 06:25:30;;;;;;;2.20;1.63;;;11.80;99.90;;;;;;5075088;28;20533;-83
2023/11/20 06:27:59;;;;;;;2.50;1.53;;;11.80;99.90;;;;;;5075205;28;20481;-83
2023/11/20 06:30:28;;;;;;;2.00;1.53;;;11.80;99.90;;;;;;5075076;28;20880;-81
2023/11/20 06:32:57;;;;;;;2.60;1.70;;;11.80;99.90;;;;;;5076515;28;20433;-82
2023/11/20 06:35:25;;;;;;;2.20;2.00;;;11.80;99.90;;;;;;5075883;28;20845;-83
2023/11/20 06:37:53;;;;;;;3.00;2.10;;;11.80;99.90;;;;;;5075167;28;20950;-83
2023/11/20 06:40:21;;;;;;;2.40;2.20;;;11.80;99.90;;;;;;5074429;28;20510;-84
2023/11/20 06:42:50;;;;;;;2.47;2.13;;;11.90;99.90;;;;;;5075079;28;20492;-83
2023/11/20 06:45:19;;;;;;;2.37;2.17;;;11.80;99.90;;;;;;5075302;28;20528;-85
2023/11/20 06:47:48;;;;;;;2.30;2.10;;;11.80;99.90;;;;;;5078876;28;20453;-83
2023/11/20 06:50:17;;;;;;;2.90;2.40;;;11.80;99.90;;;;;;5078636;28;20471;-84
2023/11/20 06:52:45;;;;;;;2.60;2.17;;;11.80;99.90;;;;;;5078413;28;20473;-83
2023/11/20 06:55:13;;;;;;;2.43;2.20;;;11.80;99.90;;;;;;5078124;28;20445;-82
2023/11/20 06:57:42;;;;;;;4.13;2.20;;;11.80;99.90;;;;;;5080462;28;20459;-81
2023/11/20 07:00:12;;;;;;;4.00;2.30;;;11.80;99.90;;;;;;5078310;28;20453;-81
2023/11/20 07:02:42;;;;;;;2.90;2.10;;;11.80;99.90;;;;;;5079735;28;20849;-83
2023/11/20 07:05:16;;;;;;;2.70;2.10;;;11.80;99.90;;;;;;5079220;28;20961;-83
2023/11/20 07:07:52;;;;;;;2.93;2.20;;;11.80;99.90;;;;;;5078592;28;20449;-81
2023/11/20 07:10:23;;;;;;;3.10;2.80;;;11.80;99.90;;;;;;5078967;28;20502;-81
2023/11/20 07:12:52;;;;;;;2.83;2.50;;;11.70;99.90;;;;;;5079193;28;20453;-82
2023/11/20 07:15:21;;;;;;;2.60;2.33;;;11.70;99.90;;;;;;5079259;28;20449;-82
2023/11/20 07:17:50;;;;;;;2.10;1.70;;;11.80;99.90;;;;;;5078079;28;20445;-83
2023/11/20 07:20:20;;;;;;;2.07;1.57;;;11.70;99.90;;;;;;5081224;28;20499;-83
2023/11/20 07:22:48;;;;;;;2.07;1.50;;;11.70;99.90;;;;;;5082407;28;20472;-84
2023/11/20 07:25:17;;;;;;;2.07;1.50;;;11.70;99.90;;;;;;5082458;28;20508;-83
2023/11/20 07:27:45;;;;;;;1.60;1.27;;;11.70;99.90;;;;;;5082932;28;20448;-84
2023/11/20 07:30:14;;;;;;;1.87;1.43;;;11.70;99.90;;;;;;5083212;28;20460;-82
2023/11/20 07:32:42;;;;;;;3.57;1.80;;;11.70;99.90;;;;;;5082457;28;20476;-82
2023/11/20 07:35:13;;;;;;;2.33;1.87;;;11.70;99.90;;;;;;5083289;28;20449;-82
2023/11/20 07:37:42;;;;;;;2.80;2.40;;;11.70;99.90;;;;;;5082263;28;20444;-83
2023/11/20 07:40:12;;;;;;;3.80;2.07;;;11.80;99.90;;;;;;5081092;28;20445;-83
2023/11/20 07:42:41;;;;;;;2.30;1.77;;;11.70;99.90;;;;;;5080500;28;20534;-84
2023/11/20 07:45:10;;;;;;;2.47;1.97;;;11.70;99.90;;;;;;5080360;28;21004;-83
2023/11/20 07:47:39;;;;;;;2.83;2.60;;;11.70;99.90;;;;;;5079648;28;20861;-83
2023/11/20 07:50:10;;;;;;;2.43;2.20;;;11.70;99.90;;;;;;5079380;28;20456;-83
2023/11/20 07:52:39;;;;;;;3.40;2.97;;;11.70;99.90;;;;;;5079798;28;20477;-82
2023/11/20 07:55:09;;;;;;;3.57;3.27;;;11.70;99.90;;;;;;5079809;28;20988;-83
2023/11/20 07:57:37;;;;;;;4.17;3.77;;;11.70;99.90;;;;;;5079269;28;20445;-83
2023/11/20 08:00:11;;;;;;;4.03;3.60;;;11.60;99.90;;;;;;5080513;28;20487;-83
2023/11/20 08:02:40;;;;;;;6.03;4.00;;;11.70;99.90;;;;;;5081626;28;20563;-82
2023/11/20 08:05:09;;;;;;;3.23;2.97;;;11.60;99.90;;;;;;5080702;28;20949;-84
2023/11/20 08:07:38;;;;;;;3.70;3.40;;;11.70;99.90;;;;;;5079677;28;20445;-82
2023/11/20 08:10:09;;;;;;;3.67;3.00;;;11.70;99.90;;;;;;5078960;28;20445;-82
2023/11/20 08:12:38;;;;;;;3.40;2.97;;;11.60;99.90;;;;;;5078051;28;20982;-80
2023/11/20 08:15:11;;;;;;;3.60;3.30;;;11.60;99.90;;;;;;5078758;28;20457;-82
2023/11/20 08:17:40;;;;;;;3.77;3.47;;;11.60;99.90;;;;;;5080709;28;20453;-82
2023/11/20 08:20:09;;;;;;;5.30;4.00;;;11.60;99.90;;;;;;5078499;28;20953;-81
2023/11/20 08:22:38;;;;;;;3.20;2.77;;;11.60;99.90;;;;;;5077584;28;20572;-83
2023/11/20 08:25:08;;;;;;;2.27;1.93;;;11.60;99.90;;;;;;5078280;28;20473;-80
2023/11/20 08:27:37;;;;;;;2.53;2.23;;;11.60;99.90;;;;;;5080638;28;20459;-81
2023/11/20 08:30:10;;;;;;;2.90;2.10;;;11.70;99.90;;;;;;5083520;28;20483;-82
2023/11/20 08:32:38;;;;;;;2.47;1.80;;;11.60;99.90;;;;;;5082324;28;20560;-83
2023/11/20 08:35:09;;;;;;;2.67;1.90;;;11.60;99.90;;;;;;5082911;28;20448;-82
2023/11/20 08:37:37;;;;;;;2.63;1.40;;;11.60;99.90;;;;;;5080929;28;20449;-81
2023/11/20 08:40:08;;;;;;;2.00;1.53;;;11.60;99.90;;;;;;5080562;28;20502;-80
2023/11/20 08:42:38;;;;;;;1.90;1.50;;;11.60;99.90;;;;;;5080125;28;20491;-79
2023/11/20 08:45:08;;;;;;;2.07;1.57;;;11.60;99.90;;;;;;5081339;28;20444;-81
2023/11/20 08:47:39;;;;;;;3.00;1.73;;;11.50;99.90;;;;;;5080477;28;20441;-79
2023/11/20 08:50:09;;;;;;;2.53;1.70;;;11.50;99.90;;;;;;5079539;28;20441;-80
2023/11/20 08:52:37;;;;;;;2.43;1.90;;;11.50;99.90;;;;;;5081302;28;20464;-79
2023/11/20 08:55:07;;;;;;;2.77;1.80;;;11.50;99.90;;;;;;5079209;28;20544;-80
2023/11/20 08:57:36;;;;;;;3.30;2.07;;;11.50;99.90;;;;;;5080767;28;20438;-79
2023/11/20 09:00:12;;;;;;;2.70;1.93;;;11.50;99.90;;;;;;5079485;28;20449;-79
2023/11/20 09:02:40;;;;;;;2.50;1.73;;;11.50;99.90;;;;;;5079295;28;20473;-81
2023/11/20 09:05:10;;;;;;;3.17;1.90;;;11.50;99.90;;;;;;5078385;28;20969;-81
2023/11/20 09:07:38;;;;;;;2.77;2.10;;;11.50;99.90;;;;;;5078850;28;20449;-80
2023/11/20 09:10:08;;;;;;;3.00;2.47;;;11.50;99.90;;;;;;5081128;28;20998;-81
2023/11/20 09:12:37;;;;;;;3.20;1.97;;;11.50;99.90;;;;;;5080682;28;20489;-81
2023/11/20 09:15:08;;;;;;;2.13;1.80;;;11.50;99.90;;;;;;5079387;28;21029;-80
2023/11/20 09:17:37;;;;;;;2.50;1.83;;;11.50;99.90;;;;;;5079011;28;20459;-82
2023/11/20 09:20:06;;;;;;;2.30;1.90;;;11.50;99.90;;;;;;5078480;28;20445;-81
2023/11/20 09:22:34;;;;;;;4.60;1.70;;;11.50;99.90;;;;;;5077333;28;21005;-81
2023/11/20 09:25:03;;;;;;;2.07;1.30;;;11.50;99.90;;;;;;5079353;28;20865;-80
2023/11/20 09:27:33;;;;;;;1.60;1.17;;;11.50;99.90;;;;;;5077230;28;20540;-80
2023/11/20 09:30:02;;;;;;;3.00;1.40;;;11.50;99.90;;;;;;5079113;28;20464;-81
2023/11/20 09:32:32;;;;;;;2.20;1.37;;;11.50;99.90;;;;;;5078276;28;20457;-80
2023/11/20 09:35:00;;;;;;;1.50;1.10;;;11.50;99.90;;;;;;5077971;28;20445;-79
2023/11/20 09:37:28;;;;;;;1.40;1.10;;;11.50;99.90;;;;;;5078144;28;20492;-81
2023/11/20 09:39:58;;;;;;;1.70;1.00;;;11.50;99.90;;;;;;5078100;28;20441;-82
2023/11/20 09:42:27;;;;;;;1.57;1.07;;;11.50;99.90;;;;;;5077133;28;20499;-81
2023/11/20 09:44:58;;;;;;;2.27;1.50;;;11.50;99.90;;;;;;5076813;28;20488;-81
2023/11/20 09:47:29;;;;;;;1.40;0.90;;;11.50;99.90;;;;;;5077674;28;20476;-81
2023/11/20 09:50:00;;;;;;;1.60;1.10;;;11.50;99.90;;;;;;5076406;28;20784;-79
2023/11/20 09:52:33;;;;;;;1.80;1.33;;;11.50;99.90;;;;;;5075789;28;20885;-80
2023/11/20 09:55:02;;;;;;;1.83;1.30;;;11.50;99.90;;;;;;5076466;28;20850;-79
2023/11/20 09:57:30;;;;;;;2.47;1.27;;;11.50;99.90;;;;;;5076175;28;20454;-81
2023/11/20 09:59:59;;;;;;;2.20;1.23;;;11.50;99.90;;;;;;5076607;28;20544;-83
2023/11/20 10:02:29;;;;;;;5.83;2.17;;;11.50;99.90;;;;;;5075967;28;20469;-80
2023/11/20 10:05:00;;;;;;;2.20;1.63;;;11.50;99.90;;;;;;5075172;28;20449;-80
2023/11/20 10:07:33;;;;;;;2.93;2.20;;;11.50;99.90;;;;;;5076558;28;20461;-80
2023/11/20 10:10:02;;;;;;;2.93;2.07;;;11.40;99.90;;;;;;5078425;28;20413;-79
2023/11/20 10:12:33;;;;;;;4.23;2.00;;;11.40;99.90;;;;;;5075598;28;20476;-80
2023/11/20 10:15:04;;;;;;;2.53;1.80;;;11.40;99.90;;;;;;5076091;28;20524;-81
2023/11/20 10:17:34;;;;;;;3.23;2.10;;;11.40;99.90;;;;;;5076481;28;20460;-80
2023/11/20 10:20:09;;;;;;;2.90;2.23;;;11.40;99.90;;;;;;5076310;28;20843;-81
2023/11/20 10:22:37;;;;;;;4.00;2.50;;;11.40;99.90;;;;;;5075193;28;20559;-81
2023/11/20 10:25:08;;;;;;;6.13;2.30;;;11.40;99.90;;;;;;5074891;28;20452;-79
2023/11/20 10:27:37;;;;;;;3.17;2.20;;;11.40;99.90;;;;;;5074875;28;20457;-79
2023/11/20 10:30:09;;;;;;;5.30;2.40;;;11.30;99.90;;;;;;5075911;28;20449;-79
2023/11/20 10:32:42;;;;;;;5.00;3.00;;;11.40;99.90;;;;;;5075300;28;20487;-80
2023/11/20 10:35:17;;;;;;;5.70;3.80;;;11.40;99.90;;;;;;5075347;28;20437;-80
2023/11/20 10:37:52;;;;;;;3.53;2.60;;;11.40;99.90;;;;;;5075103;28;20863;-81
2023/11/20 10:40:21;;;;;;;5.33;2.80;;;11.40;99.90;;;;;;5077425;28;20508;-82
2023/11/20 10:42:50;;;;;;;4.03;3.03;;;11.40;99.90;;;;;;5079721;28;20504;-82
2023/11/20 10:45:18;;;;;;;4.40;3.70;;;11.40;99.90;;;;;;5081954;28;20444;-83
2023/11/20 10:47:48;;;;;;;10.00;4.67;;;11.40;99.90;;;;;;5081730;28;20449;-83
2023/11/20 10:50:22;;;;;;;8.40;4.53;;;11.40;99.90;;;;;;5081312;28;20445;-82
2023/11/20 10:52:53;;;;;;;5.07;4.50;;;11.40;99.90;;;;;;5081048;28;20449;-84
2023/11/20 10:55:29;;;;;;;7.37;4.20;;;11.40;99.90;;;;;;5078798;28;20460;-83
2023/11/20 10:57:59;;;;;;;7.23;4.90;;;11.40;99.90;;;;;;5081635;28;20519;-84
2023/11/20 11:00:28;;;;;;;11.03;6.10;;;11.40;99.90;;;;;;5083136;28;20437;-83
2023/11/20 11:02:58;;;;;;;9.83;6.10;;;11.40;99.90;;;;;;5082595;28;20507;-82
2023/11/20 11:05:43;;;;;;;11.23;7.07;;;11.40;99.90;;;;;;5082800;28;20540;-81
2023/11/20 11:08:13;;;;;;;15.03;6.27;;;11.40;99.90;;;;;;5082903;28;20980;-81
2023/11/20 11:10:43;;;;;;;13.37;5.83;;;11.40;99.90;;;;;;5083245;28;20838;-83
2023/11/20 11:13:12;;;;;;;12.90;6.67;;;11.50;99.90;;;;;;5083133;28;20958;-82
2023/11/20 11:15:41;;;;;;;10.40;5.87;;;11.50;99.90;;;;;;5083421;28;20489;-81
2023/11/20 11:18:14;;;;;;;14.90;6.17;;;11.40;99.90;;;;;;5083331;28;20449;-83
2023/11/20 11:20:49;;;;;;;14.07;5.37;;;11.50;99.90;;;;;;5082924;28;20453;-83
2023/11/20 11:23:23;;;;;;;9.30;5.27;;;11.50;99.90;;;;;;5082392;28;20445;-83
2023/11/20 11:26:04;;;;;;;13.47;6.60;;;11.40;99.90;;;;;;5082925;28;20465;-83
2023/11/20 11:28:32;;;;;;;19.17;7.30;;;11.50;99.90;;;;;;5082613;28;20467;-82
2023/11/20 11:31:03;;;;;;;12.80;6.40;;;11.40;99.90;;;;;;5080452;28;20508;-82
2023/11/20 11:33:48;;;;;;;15.30;6.07;;;11.50;99.90;;;;;;5082361;28;20522;-82
2023/11/20 11:36:28;;;;;;;13.80;6.17;;;11.40;99.90;;;;;;5082971;28;20417;-83
2023/11/20 11:39:03;;;;;;;10.83;5.63;;;11.50;99.90;;;;;;5082449;28;20899;-82
2023/11/20 11:41:45;;;;;;;17.00;7.23;;;11.40;99.90;;;;;;5079234;28;20522;-82
2023/11/20 11:44:20;;;;;;;15.00;6.77;;;11.40;99.90;;;;;;5081053;28;20548;-82
2023/11/20 11:46:50;;;;;;;11.80;6.30;;;11.40;99.90;;;;;;5080431;28;20463;-81
2023/11/20 11:49:20;;;;;;;14.00;6.00;;;11.40;99.90;;;;;;5078539;28;20536;-82
2023/11/20 11:51:53;;;;;;;16.57;7.17;;;11.40;99.90;;;;;;5079641;28;20466;-81
2023/11/20 11:54:23;;;;;;;15.57;6.97;;;11.40;99.90;;;;;;5080116;28;20441;-81
2023/11/20 11:57:00;;;;;;;11.90;5.20;;;11.40;99.90;;;;;;5080581;28;20441;-83
2023/11/20 11:59:39;;;;;;;16.70;5.50;;;11.40;99.90;;;;;;5082596;28;20504;-83
2023/11/20 12:02:10;;;;;;;13.13;6.00;;;11.40;99.90;;;;;;5077883;28;20468;-83
2023/11/20 12:05:00;;;;;;;10.90;5.30;;;11.40;99.90;;;;;;5076419;28;20481;-81
2023/11/20 12:07:49;;;;;;;13.97;5.60;;;11.40;99.90;;;;;;5078129;28;20921;-82
2023/11/20 12:10:18;;;;;;;12.37;6.07;;;11.40;99.90;;;;;;5079015;28;20523;-82
2023/11/20 12:13:06;;;;;;;10.47;5.83;;;11.40;99.90;;;;;;5078342;28;20674;-82
2023/11/20 12:15:37;;;;;;;11.93;5.40;;;11.40;99.90;;;;;;5079836;28;20507;-81
2023/11/20 12:18:13;;;;;;;17.63;6.40;;;11.40;99.90;;;;;;5078187;28;20437;-82
2023/11/20 12:20:58;;;;;;;13.47;5.43;;;11.40;99.90;;;;;;5077717;28;20452;-83
2023/11/20 12:23:30;;;;;;;14.90;6.00;;;11.40;99.90;;;;;;5077884;28;20536;-84
2023/11/20 12:25:59;;;;;;;11.60;6.10;;;11.40;99.90;;;;;;5079145;28;20487;-81
2023/11/20 12:28:31;;;;;;;13.80;6.00;;;11.40;99.90;;;;;;5077605;28;20445;-81
2023/11/20 12:31:03;;;;;;;8.90;5.53;;;11.40;99.90;;;;;;5077479;28;20508;-83
2023/11/20 12:33:33;;;;;;;14.83;7.27;;;11.40;99.90;;;;;;5077484;28;20837;-81
2023/11/20 12:36:01;;;;;;;16.57;5.53;;;11.40;99.90;;;;;;5077855;28;20445;-82
2023/11/20 12:38:32;;;;;;;18.37;6.30;;;11.40;99.90;;;;;;5078537;28;20445;-80
2023/11/20 12:41:03;;;;;;;14.73;7.03;;;11.40;99.90;;;;;;5077181;28;20472;-81
2023/11/20 12:43:33;;;;;;;15.77;6.37;;;11.30;99.90;;;;;;5077620;28;20446;-80
2023/11/20 12:46:04;;;;;;;12.77;5.10;;;11.40;99.90;;;;;;5077622;28;20476;-81
2023/11/20 12:48:33;;;;;;;14.97;5.13;;;11.40;99.90;;;;;;5078961;28;20496;-84
2023/11/20 12:51:01;;;;;;;13.47;5.50;;;11.40;99.90;;;;;;5077302;28;20501;-82
2023/11/20 12:53:29;;;;;;;12.13;6.63;;;11.40;99.90;;;;;;5079071;28;20478;-82
2023/11/20 12:56:04;;;;;;;17.07;5.50;;;11.30;99.90;;;;;;5078721;28;20487;-82
2023/11/20 12:58:32;;;;;;;16.47;6.97;;;11.30;99.90;;;;;;5078078;28;20477;-81